Time;durP1;ratioP1;P1;durP2;ratioP2;P2;SDS_P1;SDS_P2;PMS_P1;PMS_P2;Temp;Humidity;BMP_temperature;BMP_pressure;BME280_temperature;BME280_humidity;BME280_pressure;Samples;Min_cycle;Max_cycle;Signal;HPM_P1;HPM_P2
2021/06/17 00:02:20;;;;;;;7.23;6.53;;;23.50;99.90;;;;;;5024125;28;20276;-66
2021/06/17 00:04:46;;;;;;;7.40;6.80;;;23.50;99.90;;;;;;5016261;28;20731;-64
2021/06/17 00:07:14;;;;;;;6.77;6.20;;;23.50;99.90;;;;;;5014145;28;20265;-65
2021/06/17 00:09:40;;;;;;;6.87;6.20;;;23.40;99.90;;;;;;5008896;28;20200;-65
2021/06/17 00:12:06;;;;;;;7.07;6.60;;;23.40;99.90;;;;;;5021402;28;20608;-65
2021/06/17 00:14:33;;;;;;;6.77;6.33;;;23.40;99.90;;;;;;5019053;28;20244;-65
2021/06/17 00:17:00;;;;;;;6.70;6.20;;;23.40;99.90;;;;;;5019972;28;20689;-64
2021/06/17 00:19:27;;;;;;;7.70;5.80;;;23.40;99.90;;;;;;5022667;28;20663;-65
2021/06/17 00:21:54;;;;;;;6.10;5.60;;;23.30;99.90;;;;;;5019394;28;20635;-66
2021/06/17 00:24:20;;;;;;;7.23;6.67;;;23.30;99.90;;;;;;5033238;28;20635;-66
2021/06/17 00:26:47;;;;;;;6.33;5.83;;;23.30;99.90;;;;;;5020911;28;20675;-64
2021/06/17 00:29:12;;;;;;;6.30;5.77;;;23.30;99.90;;;;;;5017975;28;21143;-65
2021/06/17 00:31:39;;;;;;;6.60;5.97;;;23.30;99.90;;;;;;5017318;28;20700;-65
2021/06/17 00:34:08;;;;;;;5.97;5.47;;;23.30;99.90;;;;;;5018501;28;20225;-66
2021/06/17 00:36:37;;;;;;;5.80;5.40;;;23.30;99.90;;;;;;5018903;28;20635;-66
2021/06/17 00:39:05;;;;;;;6.20;5.60;;;23.20;99.90;;;;;;5024592;28;20616;-66
2021/06/17 00:41:31;;;;;;;6.20;5.80;;;23.20;99.90;;;;;;5014864;28;20646;-66
2021/06/17 00:43:56;;;;;;;6.27;5.77;;;23.20;99.90;;;;;;5017577;28;20697;-66
2021/06/17 00:46:22;;;;;;;5.77;5.37;;;23.10;99.90;;;;;;5022577;28;20638;-66
2021/06/17 00:48:48;;;;;;;5.70;5.40;;;23.10;99.90;;;;;;5020600;28;20181;-66
2021/06/17 00:51:13;;;;;;;6.63;6.00;;;23.10;99.90;;;;;;5020786;28;20205;-66
2021/06/17 00:53:39;;;;;;;6.50;6.00;;;23.00;99.90;;;;;;5018257;28;20220;-66
2021/06/17 00:56:05;;;;;;;6.10;5.60;;;23.00;99.90;;;;;;5025252;28;20212;-66
2021/06/17 00:58:30;;;;;;;6.70;6.20;;;22.90;99.90;;;;;;5018132;28;20630;-66
2021/06/17 01:00:59;;;;;;;6.13;5.63;;;22.90;99.90;;;;;;5021464;28;20228;-66
2021/06/17 01:03:24;;;;;;;5.27;4.97;;;22.90;99.90;;;;;;5024629;28;20283;-70
2021/06/17 01:05:50;;;;;;;6.10;5.70;;;22.90;99.90;;;;;;5057264;28;20635;-65
2021/06/17 01:08:49;;;;;;;7.13;6.57;;;22.80;99.90;;;;;;5025723;28;20214;-65
2021/06/17 01:11:36;;;;;;;6.40;5.90;;;22.90;99.90;;;;;;5017156;28;20778;-66
2021/06/17 01:14:09;;;;;;;6.13;5.60;;;22.90;99.90;;;;;;5022141;28;20634;-66
2021/06/17 01:16:43;;;;;;;6.50;6.10;;;22.90;99.90;;;;;;5023179;28;20681;-66
2021/06/17 01:19:16;;;;;;;6.43;5.93;;;22.70;99.90;;;;;;5026212;28;20611;-66
2021/06/17 01:21:56;;;;;;;6.20;5.63;;;22.70;99.90;;;;;;5021464;28;20642;-66
2021/06/17 01:24:27;;;;;;;6.07;5.60;;;22.70;99.90;;;;;;5025684;28;21245;-65
2021/06/17 01:27:31;;;;;;;6.33;5.93;;;22.70;99.90;;;;;;5009996;28;20735;-66
2021/06/17 01:30:04;;;;;;;5.80;5.40;;;22.70;99.90;;;;;;5016334;28;20626;-66
2021/06/17 01:32:31;;;;;;;6.17;5.60;;;22.60;99.90;;;;;;5011339;28;20614;-66
2021/06/17 01:34:57;;;;;;;5.83;5.33;;;22.50;99.90;;;;;;5019686;28;20654;-66
2021/06/17 01:37:26;;;;;;;6.00;5.60;;;22.50;99.90;;;;;;5012504;28;21308;-66
2021/06/17 01:39:53;;;;;;;5.77;5.37;;;22.50;99.90;;;;;;5031374;28;20638;-66
2021/06/17 01:42:24;;;;;;;6.23;5.67;;;22.50;99.90;;;;;;5014684;28;20644;-66
2021/06/17 01:44:56;;;;;;;6.07;5.57;;;22.40;99.90;;;;;;5037476;28;20813;-65
2021/06/17 01:47:25;;;;;;;6.07;5.67;;;22.40;99.90;;;;;;5013425;28;21767;-66
2021/06/17 01:49:51;;;;;;;6.17;5.40;;;22.40;99.90;;;;;;5023564;28;20742;-66
2021/06/17 01:52:19;;;;;;;6.07;5.63;;;22.40;99.90;;;;;;5014296;28;20634;-66
2021/06/17 01:54:45;;;;;;;5.90;5.40;;;22.30;99.90;;;;;;5018968;28;20631;-66
2021/06/17 01:57:14;;;;;;;5.70;5.23;;;22.30;99.90;;;;;;5023918;28;21296;-66
2021/06/17 01:59:43;;;;;;;5.90;5.40;;;22.30;99.90;;;;;;5018443;28;20631;-66
2021/06/17 02:02:09;;;;;;;5.87;5.47;;;22.30;99.90;;;;;;5015865;28;20634;-66
2021/06/17 02:04:35;;;;;;;5.80;5.40;;;22.30;99.90;;;;;;5014933;28;20632;-66
2021/06/17 02:07:01;;;;;;;5.80;5.40;;;22.30;99.90;;;;;;5021995;28;21260;-66
2021/06/17 02:09:28;;;;;;;6.20;5.60;;;22.20;99.90;;;;;;5019400;28;20223;-66
2021/06/17 02:11:55;;;;;;;6.10;5.60;;;22.20;99.90;;;;;;5014971;28;20697;-65
2021/06/17 02:14:24;;;;;;;5.90;5.30;;;22.20;99.90;;;;;;5014963;28;20682;-66
2021/06/17 02:16:50;;;;;;;5.40;5.10;;;22.20;99.90;;;;;;5026499;28;20709;-66
2021/06/17 02:19:17;;;;;;;5.60;5.20;;;22.20;99.90;;;;;;5016444;28;20619;-66
2021/06/17 02:21:48;;;;;;;5.70;5.30;;;22.20;99.90;;;;;;5017373;28;21073;-66
2021/06/17 02:24:17;;;;;;;5.93;5.53;;;22.10;99.90;;;;;;5021206;28;21014;-66
2021/06/17 02:26:44;;;;;;;5.83;5.43;;;22.10;99.90;;;;;;5023601;28;21249;-66
2021/06/17 02:29:18;;;;;;;5.70;5.20;;;22.10;99.90;;;;;;5018909;28;21237;-66
2021/06/17 02:31:46;;;;;;;5.30;4.90;;;22.10;99.90;;;;;;5017151;28;20643;-65
2021/06/17 02:34:14;;;;;;;5.53;5.07;;;22.10;99.90;;;;;;5017651;28;20655;-66
2021/06/17 02:36:41;;;;;;;5.37;5.07;;;22.10;99.90;;;;;;5017312;28;20758;-66
2021/06/17 02:39:08;;;;;;;5.23;4.87;;;22.00;99.90;;;;;;5024022;28;21721;-66
2021/06/17 02:41:42;;;;;;;6.07;5.67;;;22.00;99.90;;;;;;5019919;28;20788;-66
2021/06/17 02:44:08;;;;;;;5.50;5.20;;;21.90;99.90;;;;;;5016928;28;21114;-66
2021/06/17 02:46:34;;;;;;;5.27;4.97;;;22.00;99.90;;;;;;5014666;28;20743;-66
2021/06/17 02:49:00;;;;;;;6.20;5.70;;;22.00;99.90;;;;;;5017561;28;20276;-66
2021/06/17 02:51:25;;;;;;;6.03;5.47;;;21.90;99.90;;;;;;5016116;28;20645;-66
2021/06/17 02:53:51;;;;;;;5.60;5.20;;;22.00;99.90;;;;;;5014978;28;20232;-66
2021/06/17 02:56:25;;;;;;;5.90;5.40;;;21.90;99.90;;;;;;5014230;28;20185;-66
2021/06/17 02:59:32;;;;;;;6.27;5.87;;;21.90;99.90;;;;;;5021546;28;20184;-66
2021/06/17 03:02:18;;;;;;;6.50;5.90;;;21.80;99.90;;;;;;4994869;28;20647;-66
2021/06/17 03:04:51;;;;;;;5.87;5.23;;;21.80;99.90;;;;;;5022598;28;20632;-66
2021/06/17 03:07:24;;;;;;;5.17;4.83;;;21.70;99.90;;;;;;5020743;28;21533;-66
2021/06/17 03:09:55;;;;;;;5.30;4.90;;;21.70;99.90;;;;;;5022535;28;20603;-65
2021/06/17 03:12:25;;;;;;;5.63;5.20;;;21.70;99.90;;;;;;5014779;28;20679;-65
2021/06/17 03:14:53;;;;;;;5.60;5.20;;;21.70;99.90;;;;;;5013277;28;20704;-65
2021/06/17 03:17:19;;;;;;;5.70;5.30;;;21.70;99.90;;;;;;5013685;28;20618;-66
2021/06/17 03:19:51;;;;;;;6.80;5.10;;;21.60;99.90;;;;;;5011751;28;20652;-66
2021/06/17 03:22:17;;;;;;;5.90;5.50;;;21.70;99.90;;;;;;5018893;28;21451;-66
2021/06/17 03:24:45;;;;;;;5.90;5.50;;;21.60;99.90;;;;;;5016657;28;21285;-65
2021/06/17 03:27:11;;;;;;;5.77;5.30;;;21.60;99.90;;;;;;5019869;28;20774;-66
2021/06/17 03:29:41;;;;;;;5.67;5.20;;;21.50;99.90;;;;;;5015359;28;20731;-66
2021/06/17 03:32:10;;;;;;;5.40;5.00;;;21.50;99.90;;;;;;5023134;28;20623;-66
2021/06/17 03:34:37;;;;;;;5.73;5.33;;;21.50;99.90;;;;;;5010769;28;20750;-66
2021/06/17 03:37:03;;;;;;;5.73;5.40;;;21.50;99.90;;;;;;5011172;28;20642;-66
2021/06/17 03:39:29;;;;;;;5.83;5.30;;;21.50;99.90;;;;;;5019023;28;20670;-66
2021/06/17 03:41:57;;;;;;;5.70;5.30;;;21.50;99.90;;;;;;5018833;28;21254;-66
2021/06/17 03:44:24;;;;;;;5.00;4.70;;;21.50;99.90;;;;;;5010518;28;20651;-66
2021/06/17 03:46:50;;;;;;;5.47;5.00;;;21.40;99.90;;;;;;5019308;28;20756;-66
2021/06/17 03:49:17;;;;;;;5.50;5.00;;;21.40;99.90;;;;;;5012238;28;20630;-66
2021/06/17 03:51:43;;;;;;;5.30;5.00;;;21.50;99.90;;;;;;5007699;28;20651;-66
2021/06/17 03:54:09;;;;;;;5.43;5.03;;;21.50;99.90;;;;;;5013757;28;20649;-66
2021/06/17 03:56:36;;;;;;;5.37;4.97;;;21.50;99.90;;;;;;5015689;28;20193;-67
2021/06/17 03:59:02;;;;;;;5.07;4.77;;;21.40;99.90;;;;;;5016438;28;20721;-66
2021/06/17 04:01:29;;;;;;;5.60;5.30;;;21.50;99.90;;;;;;5028964;28;20675;-66
2021/06/17 04:03:55;;;;;;;5.30;4.90;;;21.50;99.90;;;;;;5033195;28;20232;-65
2021/06/17 04:06:25;;;;;;;5.53;4.97;;;21.50;99.90;;;;;;5024232;28;21028;-66
2021/06/17 04:08:53;;;;;;;5.80;5.30;;;21.50;99.90;;;;;;5026621;28;20193;-66
2021/06/17 04:11:20;;;;;;;4.97;4.67;;;21.40;99.90;;;;;;5020569;28;20759;-66
2021/06/17 04:13:47;;;;;;;5.97;5.10;;;21.50;99.90;;;;;;5022394;28;20646;-66
2021/06/17 04:16:18;;;;;;;5.33;4.90;;;21.50;99.90;;;;;;5023975;28;20673;-66
2021/06/17 04:18:46;;;;;;;5.40;5.00;;;21.50;99.90;;;;;;5014366;28;20611;-66
2021/06/17 04:21:14;;;;;;;5.37;4.97;;;21.50;99.90;;;;;;5016540;28;20661;-66
2021/06/17 04:23:42;;;;;;;5.43;5.03;;;21.50;99.90;;;;;;5019309;28;20635;-66
2021/06/17 04:26:10;;;;;;;5.47;5.07;;;21.50;99.90;;;;;;5021533;28;20663;-66
2021/06/17 04:28:36;;;;;;;5.53;4.37;;;21.50;99.90;;;;;;5022992;28;20694;-65
2021/06/17 04:31:03;;;;;;;5.43;4.93;;;21.60;99.90;;;;;;5020961;28;20749;-66
2021/06/17 04:33:29;;;;;;;5.30;4.90;;;21.60;99.90;;;;;;5021637;28;21004;-66
2021/06/17 04:35:59;;;;;;;5.30;4.67;;;21.60;99.90;;;;;;5019342;28;20620;-66
2021/06/17 04:38:26;;;;;;;5.33;4.70;;;21.70;99.90;;;;;;5018903;28;20627;-66
2021/06/17 04:40:52;;;;;;;5.53;5.13;;;21.70;99.90;;;;;;5018535;28;20649;-66
2021/06/17 04:43:22;;;;;;;5.47;5.07;;;21.80;99.90;;;;;;5014962;28;20648;-65
2021/06/17 04:45:52;;;;;;;5.33;4.83;;;21.70;99.90;;;;;;5019675;28;20668;-66
2021/06/17 04:48:21;;;;;;;5.23;4.83;;;21.80;99.90;;;;;;5017662;28;20696;-66
2021/06/17 04:50:47;;;;;;;6.10;5.50;;;21.70;99.90;;;;;;5020144;28;20650;-66
2021/06/17 04:53:17;;;;;;;5.67;5.30;;;21.80;99.90;;;;;;5024713;28;20641;-66
2021/06/17 04:55:49;;;;;;;5.40;5.00;;;21.80;99.90;;;;;;5024608;28;20616;-66
2021/06/17 04:58:15;;;;;;;13.60;5.53;;;21.80;99.90;;;;;;5020229;28;20615;-65
2021/06/17 05:00:41;;;;;;;6.03;5.53;;;21.80;99.90;;;;;;5016786;28;20727;-67
2021/06/17 05:03:06;;;;;;;7.13;5.30;;;21.80;99.90;;;;;;4999733;28;22857;-66
2021/06/17 05:05:32;;;;;;;5.63;5.13;;;21.80;99.90;;;;;;4998370;28;20193;-73
2021/06/17 05:10:51;;;;;;;5.57;5.10;;;22.00;99.90;;;;;;5012718;28;20220;-73
2021/06/17 05:13:19;;;;;;;6.20;5.60;;;22.10;99.90;;;;;;5008438;28;20646;-73
2021/06/17 05:15:45;;;;;;;6.93;6.20;;;22.10;99.90;;;;;;5009237;28;20662;-73
2021/06/17 05:18:11;;;;;;;6.17;5.57;;;22.20;99.90;;;;;;5003760;28;20720;-72
2021/06/17 05:20:37;;;;;;;5.83;5.43;;;22.20;99.90;;;;;;5016835;28;20347;-72
2021/06/17 05:23:04;;;;;;;5.80;5.20;;;22.20;99.90;;;;;;5000667;28;20979;-73
2021/06/17 05:25:33;;;;;;;6.50;6.10;;;22.30;99.90;;;;;;4995748;28;20623;-73
2021/06/17 05:28:02;;;;;;;6.00;5.53;;;22.30;99.90;;;;;;4988203;28;20647;-73
2021/06/17 05:30:27;;;;;;;7.70;7.00;;;22.30;99.90;;;;;;4986809;28;20687;-73
2021/06/17 05:32:53;;;;;;;6.60;6.00;;;22.40;99.90;;;;;;5006312;28;20732;-73
2021/06/17 05:35:18;;;;;;;6.57;5.97;;;22.40;99.90;;;;;;5008227;28;20204;-73
2021/06/17 05:37:44;;;;;;;6.83;6.23;;;22.40;99.90;;;;;;5003076;28;20381;-73
2021/06/17 05:40:09;;;;;;;7.20;6.60;;;22.50;99.90;;;;;;5007459;28;20205;-73
2021/06/17 05:42:35;;;;;;;6.60;6.00;;;22.60;99.90;;;;;;5010057;28;20216;-73
2021/06/17 05:45:01;;;;;;;7.33;6.63;;;22.50;99.90;;;;;;4996049;28;20775;-73
2021/06/17 05:47:26;;;;;;;8.87;7.03;;;22.60;99.90;;;;;;5007571;28;20216;-73
2021/06/17 05:49:52;;;;;;;6.80;6.30;;;22.70;99.90;;;;;;4997760;28;20205;-73
2021/06/17 05:52:17;;;;;;;6.77;6.20;;;22.70;99.90;;;;;;5010731;28;20248;-73
2021/06/17 05:54:45;;;;;;;7.47;6.77;;;22.80;99.90;;;;;;5001016;28;20571;-73
2021/06/17 05:57:10;;;;;;;7.20;6.60;;;22.90;99.90;;;;;;5009470;28;20200;-73
2021/06/17 05:59:39;;;;;;;7.90;7.17;;;22.90;99.90;;;;;;5002441;28;20675;-73
2021/06/17 06:02:04;;;;;;;7.50;6.90;;;23.00;99.90;;;;;;5009274;28;20189;-73
2021/06/17 06:04:30;;;;;;;7.30;6.60;;;23.00;99.90;;;;;;4979711;28;20651;-73
2021/06/17 06:06:56;;;;;;;7.80;7.20;;;23.00;99.90;;;;;;4981063;28;20288;-73
2021/06/17 06:09:23;;;;;;;7.93;7.33;;;23.20;99.90;;;;;;4998821;28;20669;-73
2021/06/17 06:11:49;;;;;;;8.03;7.23;;;23.20;99.90;;;;;;5001788;28;20208;-73
2021/06/17 06:14:14;;;;;;;8.37;7.60;;;23.30;99.90;;;;;;5006696;28;21003;-73
2021/06/17 06:16:40;;;;;;;8.13;7.43;;;23.40;99.90;;;;;;5008653;28;20250;-73
2021/06/17 06:19:06;;;;;;;8.43;7.83;;;23.40;99.90;;;;;;5005090;28;20291;-73
2021/06/17 06:21:33;;;;;;;8.70;7.90;;;23.40;99.90;;;;;;5004951;28;20291;-73
2021/06/17 06:23:59;;;;;;;7.63;7.13;;;23.50;99.90;;;;;;4997997;28;20638;-73
2021/06/17 06:26:24;;;;;;;9.10;8.40;;;23.60;99.90;;;;;;4998062;28;20623;-73
2021/06/17 06:28:50;;;;;;;9.37;8.57;;;23.60;99.90;;;;;;5002850;28;20208;-73
2021/06/17 06:31:15;;;;;;;9.50;8.70;;;23.70;99.90;;;;;;5001193;28;20211;-73
2021/06/17 06:33:41;;;;;;;8.60;8.00;;;23.80;99.90;;;;;;4998306;28;20224;-73
2021/06/17 06:36:08;;;;;;;10.00;9.10;;;23.80;99.90;;;;;;5004476;28;20254;-73
2021/06/17 06:38:34;;;;;;;10.03;9.10;;;23.90;99.90;;;;;;5000480;28;20188;-73
2021/06/17 06:41:00;;;;;;;9.07;8.37;;;24.00;99.90;;;;;;5005415;28;20661;-73
2021/06/17 06:43:26;;;;;;;9.17;8.30;;;24.00;99.90;;;;;;4997711;28;20366;-73
2021/06/17 06:45:51;;;;;;;10.87;8.93;;;24.10;99.90;;;;;;5007082;28;20693;-73
2021/06/17 06:48:18;;;;;;;8.97;8.27;;;24.20;99.90;;;;;;5011448;28;20561;-73
2021/06/17 06:50:45;;;;;;;9.97;9.17;;;24.20;99.90;;;;;;5008806;28;20616;-73
2021/06/17 06:53:10;;;;;;;9.30;8.40;;;24.30;99.90;;;;;;5007885;28;20647;-73
2021/06/17 06:55:36;;;;;;;10.40;9.30;;;24.40;99.90;;;;;;5006200;28;20727;-73
2021/06/17 06:58:03;;;;;;;9.57;8.80;;;24.40;99.90;;;;;;5019162;28;20193;-73
2021/06/17 07:00:32;;;;;;;12.47;9.47;;;24.50;99.90;;;;;;5021072;28;20733;-73
2021/06/17 07:02:58;;;;;;;10.20;9.27;;;24.50;99.90;;;;;;5030848;28;20801;-73
2021/06/17 07:05:23;;;;;;;9.87;9.13;;;24.60;99.90;;;;;;5006556;28;20615;-73
2021/06/17 07:07:49;;;;;;;10.20;9.30;;;24.70;99.90;;;;;;5003183;28;20288;-73
2021/06/17 07:10:15;;;;;;;9.87;9.13;;;24.70;99.90;;;;;;4996370;28;20241;-73
2021/06/17 07:12:40;;;;;;;10.23;9.43;;;24.70;99.90;;;;;;5004214;28;20180;-73
2021/06/17 07:15:06;;;;;;;9.80;9.10;;;24.80;99.90;;;;;;5007074;28;20307;-73
2021/06/17 07:17:32;;;;;;;9.90;9.10;;;24.90;99.90;;;;;;5006049;28;20295;-73
2021/06/17 07:19:58;;;;;;;10.60;9.70;;;24.90;99.90;;;;;;5004700;28;21222;-73
2021/06/17 07:22:24;;;;;;;10.00;9.20;;;25.00;99.90;;;;;;5010025;28;20212;-73
2021/06/17 07:24:53;;;;;;;11.17;10.27;;;25.00;99.90;;;;;;5008697;28;20227;-73
2021/06/17 07:27:21;;;;;;;9.93;9.13;;;25.00;99.90;;;;;;5012031;28;20723;-72
2021/06/17 07:29:47;;;;;;;9.60;9.00;;;25.10;99.90;;;;;;4994624;28;20619;-73
2021/06/17 07:32:13;;;;;;;10.40;9.50;;;25.20;99.90;;;;;;5011722;28;20607;-66
2021/06/17 07:34:39;;;;;;;9.90;9.20;;;25.30;99.90;;;;;;5005250;28;20208;-66
2021/06/17 07:37:05;;;;;;;9.93;9.13;;;25.40;99.90;;;;;;5004738;28;20197;-65
2021/06/17 07:39:30;;;;;;;9.80;9.20;;;25.50;99.90;;;;;;5018392;28;20615;-66
2021/06/17 07:41:57;;;;;;;10.13;9.13;;;25.60;99.90;;;;;;5104827;22;20235;-65
2021/06/17 07:44:23;;;;;;;11.50;9.80;;;25.60;99.90;;;;;;5009692;28;20302;-66
2021/06/17 07:46:48;;;;;;;11.00;10.00;;;25.70;99.90;;;;;;5027552;28;21393;-66
2021/06/17 07:49:14;;;;;;;9.80;9.00;;;25.80;99.90;;;;;;5010806;28;20193;-66
2021/06/17 07:51:40;;;;;;;11.67;10.47;;;25.90;99.90;;;;;;5019739;28;20204;-66
2021/06/17 07:54:05;;;;;;;11.33;10.43;;;26.00;99.90;;;;;;5008242;28;20279;-65
2021/06/17 07:56:32;;;;;;;10.00;9.20;;;26.00;99.90;;;;;;5008848;28;20593;-66
2021/06/17 07:58:58;;;;;;;10.33;9.57;;;26.10;99.90;;;;;;5018058;28;20551;-66
2021/06/17 08:01:25;;;;;;;10.60;9.90;;;26.20;99.90;;;;;;5005279;28;20739;-66
2021/06/17 08:03:51;;;;;;;11.27;10.30;;;26.20;99.90;;;;;;5014885;28;20658;-66
2021/06/17 08:06:17;;;;;;;10.33;9.60;;;26.30;99.90;;;;;;5026509;28;21256;-64
2021/06/17 08:08:43;;;;;;;10.97;9.97;;;26.40;99.90;;;;;;5025511;28;20730;-65
2021/06/17 08:11:09;;;;;;;10.40;9.70;;;26.50;99.90;;;;;;5027885;28;21275;-65
2021/06/17 08:13:35;;;;;;;10.70;9.70;;;26.50;99.90;;;;;;5023586;28;20628;-68
2021/06/17 08:16:01;;;;;;;10.80;10.00;;;26.60;99.90;;;;;;5005176;28;21349;-66
2021/06/17 08:18:29;;;;;;;10.13;9.43;;;26.70;99.90;;;;;;5004398;28;20186;-66
2021/06/17 08:20:55;;;;;;;10.30;9.60;;;26.80;99.90;;;;;;5005744;28;20216;-66
2021/06/17 08:23:21;;;;;;;10.87;10.07;;;26.90;99.90;;;;;;5007519;28;20708;-66
2021/06/17 08:25:48;;;;;;;11.40;10.50;;;26.90;99.90;;;;;;5007255;28;20288;-67
2021/06/17 08:28:14;;;;;;;11.43;10.47;;;27.00;99.90;;;;;;5012787;28;20660;-67
2021/06/17 08:30:39;;;;;;;10.80;9.90;;;27.10;99.90;;;;;;5007627;28;20678;-67
2021/06/17 08:33:05;;;;;;;11.57;10.67;;;27.20;99.90;;;;;;5002001;28;20213;-67
2021/06/17 08:35:31;;;;;;;11.00;10.10;;;27.20;99.90;;;;;;5013421;28;23861;-67
2021/06/17 08:37:57;;;;;;;11.20;10.30;;;27.30;99.90;;;;;;5002057;28;20189;-67
2021/06/17 08:40:26;;;;;;;10.83;9.90;;;27.30;99.90;;;;;;5005117;28;20302;-67
2021/06/17 08:42:52;;;;;;;11.20;10.40;;;27.40;99.90;;;;;;5008563;28;21105;-67
2021/06/17 08:45:17;;;;;;;10.57;9.87;;;27.50;99.90;;;;;;5009377;28;21120;-67
2021/06/17 08:47:45;;;;;;;11.00;10.10;;;27.60;99.90;;;;;;5023966;28;20653;-67
2021/06/17 08:50:11;;;;;;;10.60;9.90;;;27.60;99.90;;;;;;5019166;28;20216;-69
2021/06/17 08:52:40;;;;;;;11.63;9.70;;;27.80;99.90;;;;;;5004745;28;20623;-67
2021/06/17 08:55:11;;;;;;;10.70;9.90;;;27.80;99.90;;;;;;5013853;28;20648;-67
2021/06/17 08:57:36;;;;;;;10.63;9.93;;;28.00;99.90;;;;;;5008914;28;20624;-67
2021/06/17 09:00:23;;;;;;;12.03;11.03;;;28.00;99.90;;;;;;5001927;28;20655;-67
2021/06/17 09:03:08;;;;;;;11.00;10.10;;;28.20;99.90;;;;;;5014236;28;20195;-67
2021/06/17 09:05:38;;;;;;;10.67;9.90;;;28.20;99.90;;;;;;4994644;28;20682;-67
2021/06/17 09:08:05;;;;;;;10.80;9.80;;;28.30;99.90;;;;;;5000897;28;20764;-67
2021/06/17 09:10:32;;;;;;;10.90;9.90;;;28.30;99.90;;;;;;4997623;28;21232;-67
2021/06/17 09:13:00;;;;;;;11.47;10.60;;;28.40;99.90;;;;;;5002209;28;21331;-67
2021/06/17 09:15:36;;;;;;;10.93;10.13;;;28.60;99.90;;;;;;5013983;28;20679;-67
2021/06/17 09:18:21;;;;;;;10.90;10.20;;;28.60;99.90;;;;;;5003766;28;20911;-67
2021/06/17 09:20:52;;;;;;;11.50;10.77;;;28.70;99.90;;;;;;5001654;28;20978;-67
2021/06/17 09:23:42;;;;;;;11.80;10.90;;;28.80;99.90;;;;;;5010096;28;20631;-67
2021/06/17 09:26:17;;;;;;;11.90;10.77;;;28.90;99.90;;;;;;4996977;28;20917;-67
2021/06/17 09:29:00;;;;;;;10.20;9.50;;;29.00;99.90;;;;;;5009533;28;20662;-67
2021/06/17 09:31:29;;;;;;;11.20;10.30;;;29.10;99.90;;;;;;5012888;28;20663;-68
2021/06/17 09:33:57;;;;;;;13.70;10.60;;;29.10;99.90;;;;;;5018177;28;20609;-67
2021/06/17 09:36:24;;;;;;;16.03;10.87;;;29.30;99.90;;;;;;5012404;28;21184;-67
2021/06/17 09:38:55;;;;;;;11.27;10.27;;;29.30;99.90;;;;;;5012484;28;20638;-67
2021/06/17 09:41:52;;;;;;;10.80;10.00;;;29.40;99.90;;;;;;5026732;28;21264;-67
2021/06/17 09:44:39;;;;;;;11.77;10.73;;;29.50;99.90;;;;;;5013102;28;21849;-67
2021/06/17 09:47:18;;;;;;;10.93;9.90;;;29.60;99.90;;;;;;5005785;28;20655;-69
2021/06/17 09:49:46;;;;;;;10.83;10.03;;;29.70;99.90;;;;;;5003778;28;20619;-67
2021/06/17 09:52:13;;;;;;;24.53;12.60;;;29.80;99.90;;;;;;5019814;28;20910;-68
2021/06/17 09:54:40;;;;;;;12.60;11.40;;;29.90;99.90;;;;;;5003827;28;21018;-67
2021/06/17 09:57:19;;;;;;;11.03;10.23;;;30.00;99.90;;;;;;5006072;28;20627;-69
2021/06/17 09:59:54;;;;;;;11.97;10.80;;;30.10;99.90;;;;;;5017040;28;20637;-67
2021/06/17 10:02:29;;;;;;;11.37;10.47;;;30.10;99.90;;;;;;5014478;28;20800;-67
2021/06/17 10:05:19;;;;;;;11.87;10.73;;;30.20;99.90;;;;;;5007977;28;20756;-67
2021/06/17 10:07:45;;;;;;;11.43;10.27;;;30.40;99.90;;;;;;5013186;28;20634;-67
2021/06/17 10:10:16;;;;;;;11.23;10.27;;;30.50;99.90;;;;;;5005806;28;20639;-67
2021/06/17 10:12:43;;;;;;;11.23;10.40;;;30.50;99.90;;;;;;5005190;28;21447;-67
2021/06/17 10:15:11;;;;;;;10.43;9.63;;;30.60;99.90;;;;;;5015980;28;20747;-67
2021/06/17 10:17:37;;;;;;;10.60;9.77;;;30.70;99.90;;;;;;5010490;28;20613;-66
2021/06/17 10:20:05;;;;;;;10.50;9.83;;;30.80;99.90;;;;;;5002781;28;20655;-66
2021/06/17 10:22:32;;;;;;;11.20;10.33;;;30.80;99.90;;;;;;5002968;28;20199;-67
2021/06/17 10:24:59;;;;;;;11.40;10.60;;;30.80;99.90;;;;;;5006577;28;20671;-66
2021/06/17 10:27:40;;;;;;;11.50;10.60;;;30.90;99.90;;;;;;5003799;28;20648;-66
2021/06/17 10:30:09;;;;;;;9.53;8.93;;;31.00;99.90;;;;;;4999545;28;20698;-66
2021/06/17 10:32:45;;;;;;;10.03;9.23;;;31.00;99.90;;;;;;5014307;28;20615;-68
2021/06/17 10:35:24;;;;;;;10.70;10.00;;;31.10;99.90;;;;;;5024143;28;20733;-68
2021/06/17 10:38:01;;;;;;;11.33;10.63;;;31.20;99.90;;;;;;5012323;28;20700;-67
2021/06/17 10:40:28;;;;;;;10.53;9.80;;;31.20;99.90;;;;;;5019455;28;20643;-67
2021/06/17 10:42:56;;;;;;;11.23;10.43;;;31.20;99.90;;;;;;5015732;28;20940;-65
2021/06/17 10:45:27;;;;;;;10.90;10.00;;;31.20;99.90;;;;;;5006922;28;20631;-66
2021/06/17 10:47:55;;;;;;;10.23;9.53;;;31.30;99.90;;;;;;5017758;28;21242;-67
2021/06/17 10:50:29;;;;;;;9.40;8.70;;;31.40;99.90;;;;;;5011203;28;20644;-66
2021/06/17 10:53:16;;;;;;;8.93;8.13;;;31.40;99.90;;;;;;5004871;28;20616;-67
2021/06/17 10:55:52;;;;;;;9.83;9.03;;;31.50;99.90;;;;;;4996479;28;20699;-68
2021/06/17 10:58:40;;;;;;;10.17;9.57;;;31.60;99.90;;;;;;5000982;28;21154;-67
2021/06/17 11:01:27;;;;;;;9.93;9.33;;;31.70;99.90;;;;;;5001010;28;21185;-68
2021/06/17 11:04:18;;;;;;;10.00;9.30;;;31.70;99.90;;;;;;5001425;28;20735;-66
2021/06/17 11:06:52;;;;;;;10.73;10.10;;;31.80;99.90;;;;;;4998177;28;20644;-67
2021/06/17 11:09:45;;;;;;;11.20;10.17;;;31.90;99.90;;;;;;5010808;28;20690;-67
2021/06/17 11:12:13;;;;;;;10.97;10.27;;;32.00;99.90;;;;;;5002613;28;20607;-67
2021/06/17 11:14:43;;;;;;;10.57;9.77;;;32.00;99.90;;;;;;4996861;28;21412;-67
2021/06/17 11:17:33;;;;;;;10.30;9.60;;;32.00;99.90;;;;;;4997531;28;20618;-66
2021/06/17 11:20:07;;;;;;;9.97;9.03;;;32.10;99.90;;;;;;4987063;28;20644;-67
2021/06/17 11:22:34;;;;;;;10.00;9.20;;;32.20;99.90;;;;;;5007568;28;20706;-67
2021/06/17 11:25:16;;;;;;;10.07;9.37;;;32.30;99.90;;;;;;4990566;28;20648;-67
2021/06/17 11:28:02;;;;;;;11.43;9.80;;;32.40;99.90;;;;;;4997366;28;20643;-66
2021/06/17 11:30:41;;;;;;;10.70;9.93;;;32.50;99.90;;;;;;4987422;28;20647;-65
2021/06/17 11:33:18;;;;;;;9.90;9.30;;;32.60;99.90;;;;;;4986020;28;20650;-65
2021/06/17 11:36:06;;;;;;;10.70;9.73;;;32.70;99.90;;;;;;4999353;28;20636;-66
2021/06/17 11:38:34;;;;;;;10.00;9.50;;;32.80;99.90;;;;;;4985431;28;20743;-65
2021/06/17 11:41:08;;;;;;;10.30;9.60;;;32.80;99.90;;;;;;4992502;28;20698;-66
2021/06/17 11:43:34;;;;;;;10.83;10.13;;;32.90;99.90;;;;;;4998725;28;20647;-64
2021/06/17 11:45:59;;;;;;;9.73;9.13;;;33.00;99.90;;;;;;4988667;28;21619;-66
2021/06/17 11:48:26;;;;;;;10.23;9.63;;;33.10;99.90;;;;;;4991980;28;20225;-66
2021/06/17 11:50:53;;;;;;;10.20;9.60;;;33.10;99.90;;;;;;4994114;28;20212;-64
2021/06/17 11:53:21;;;;;;;9.77;9.17;;;33.20;99.90;;;;;;4994751;28;20634;-66
2021/06/17 11:55:52;;;;;;;10.80;10.00;;;33.30;99.90;;;;;;4989964;28;20620;-65
2021/06/17 11:58:19;;;;;;;10.73;10.10;;;33.40;99.90;;;;;;4998994;28;21017;-65
2021/06/17 12:00:45;;;;;;;10.10;9.40;;;33.50;99.90;;;;;;4999889;28;21537;-65
2021/06/17 12:03:23;;;;;;;10.63;9.80;;;33.60;99.90;;;;;;4996849;28;20627;-66
2021/06/17 12:06:04;;;;;;;10.70;9.83;;;33.70;99.90;;;;;;4995353;28;20615;-66
2021/06/17 12:08:32;;;;;;;10.00;9.40;;;33.70;99.90;;;;;;4993623;28;20670;-69
2021/06/17 12:10:59;;;;;;;9.97;9.43;;;33.80;99.90;;;;;;4995503;28;20708;-66
2021/06/17 12:13:25;;;;;;;11.23;10.60;;;33.90;99.90;;;;;;4984181;28;20952;-65
2021/06/17 12:15:58;;;;;;;10.77;9.97;;;33.90;99.90;;;;;;4988054;28;21218;-66
2021/06/17 12:18:25;;;;;;;10.57;9.73;;;33.90;99.90;;;;;;4979827;28;20255;-65
2021/06/17 12:20:51;;;;;;;11.30;10.33;;;34.00;99.90;;;;;;4984236;28;20750;-66
2021/06/17 12:23:23;;;;;;;11.50;10.40;;;34.10;99.90;;;;;;4987678;28;20644;-66
2021/06/17 12:26:01;;;;;;;10.63;9.93;;;34.20;99.90;;;;;;5006453;28;21178;-66
2021/06/17 12:28:30;;;;;;;10.10;9.40;;;34.30;99.90;;;;;;5000648;28;20669;-65
2021/06/17 12:30:58;;;;;;;9.67;9.07;;;34.40;99.90;;;;;;4991546;28;20647;-65
2021/06/17 12:33:28;;;;;;;11.10;10.30;;;34.40;99.90;;;;;;4993216;28;20638;-66
2021/06/17 12:35:56;;;;;;;10.67;9.90;;;34.50;99.90;;;;;;4984453;28;20615;-65
2021/06/17 12:38:26;;;;;;;9.13;8.60;;;34.60;99.90;;;;;;4995838;28;21102;-65
2021/06/17 12:40:53;;;;;;;9.97;9.37;;;34.80;99.00;;;;;;4990876;28;20705;-65
2021/06/17 12:43:25;;;;;;;9.97;9.47;;;34.70;99.80;;;;;;4983082;28;20682;-65
2021/06/17 12:46:05;;;;;;;10.20;9.60;;;34.90;99.90;;;;;;4990972;28;20725;-66
2021/06/17 12:54:53;;;;;;;10.43;9.80;;;35.10;99.40;;;;;;4995843;28;21297;-64
2021/06/17 12:57:23;;;;;;;9.60;9.07;;;35.10;99.90;;;;;;4922244;28;20649;-65
2021/06/17 12:59:56;;;;;;;8.87;8.27;;;35.20;99.40;;;;;;4983770;28;20632;-65
2021/06/17 13:02:21;;;;;;;10.23;9.63;;;35.20;98.00;;;;;;4991695;28;20642;-65